Time;durP1;ratioP1;P1;durP2;ratioP2;P2;SDS_P1;SDS_P2;PMS_P1;PMS_P2;Temp;Humidity;BMP_temperature;BMP_pressure;BME280_temperature;BME280_humidity;BME280_pressure;Samples;Min_cycle;Max_cycle;Signal;HPM_P1;HPM_P2
2022/05/22 00:02:14;;;;;;;18.42;6.25;;;10.70;99.90;;;;;;4970536;28;20054;-68
2022/05/22 00:04:40;;;;;;;13.77;5.70;;;10.70;99.90;;;;;;4971282;28;20058;-68
2022/05/22 00:07:06;;;;;;;19.15;6.45;;;10.70;99.90;;;;;;4970278;28;20054;-68
2022/05/22 00:09:34;;;;;;;18.15;6.22;;;10.70;99.90;;;;;;4971038;28;20405;-68
2022/05/22 00:11:59;;;;;;;17.25;6.82;;;10.70;99.90;;;;;;4971780;28;20038;-67
2022/05/22 00:14:25;;;;;;;14.85;5.80;;;10.60;99.90;;;;;;4970721;28;20388;-67
2022/05/22 00:16:52;;;;;;;20.85;7.20;;;10.60;99.90;;;;;;4971265;28;20054;-67
2022/05/22 00:19:19;;;;;;;18.20;6.97;;;10.60;99.90;;;;;;4975042;28;20082;-68
2022/05/22 00:21:45;;;;;;;19.13;6.83;;;10.70;99.90;;;;;;4975058;28;20090;-68
2022/05/22 00:24:12;;;;;;;13.68;6.95;;;10.60;99.90;;;;;;4973912;28;20306;-67
2022/05/22 00:26:41;;;;;;;13.00;6.13;;;10.60;99.90;;;;;;4974609;28;20046;-68
2022/05/22 00:29:07;;;;;;;17.73;6.15;;;10.60;99.90;;;;;;4975009;28;20041;-68
2022/05/22 00:31:33;;;;;;;14.05;6.38;;;10.60;99.90;;;;;;4974844;28;20126;-68
2022/05/22 00:34:00;;;;;;;15.20;6.05;;;10.60;99.90;;;;;;4974928;28;20118;-68
2022/05/22 00:36:26;;;;;;;18.90;6.95;;;10.50;99.90;;;;;;4974728;28;20093;-68
2022/05/22 00:38:52;;;;;;;16.42;6.43;;;10.50;99.90;;;;;;4974200;28;20034;-68
2022/05/22 00:41:19;;;;;;;17.80;6.43;;;10.50;99.90;;;;;;4974723;28;20519;-67
2022/05/22 00:43:52;;;;;;;21.27;7.38;;;10.50;99.90;;;;;;4973370;28;20055;-67
2022/05/22 00:46:20;;;;;;;18.55;6.72;;;10.50;99.90;;;;;;4974541;28;20512;-67
2022/05/22 00:48:49;;;;;;;14.30;6.82;;;10.50;99.90;;;;;;4974772;28;20046;-68
2022/05/22 00:51:32;;;;;;;18.35;8.38;;;10.40;99.90;;;;;;4973950;28;20053;-68
2022/05/22 00:54:03;;;;;;;17.42;7.00;;;10.40;99.90;;;;;;4972152;28;20043;-68
2022/05/22 00:56:39;;;;;;;19.02;7.13;;;10.40;99.90;;;;;;4972156;28;20125;-68
2022/05/22 00:59:10;;;;;;;17.27;6.65;;;11.20;99.90;;;;;;4974323;28;20378;-67
2022/05/22 01:01:36;;;;;;;23.77;6.35;;;10.40;99.90;;;;;;4970576;28;20051;-67
2022/05/22 01:04:07;;;;;;;16.73;6.88;;;10.30;99.90;;;;;;4972932;28;20043;-69
2022/05/22 01:06:34;;;;;;;18.90;6.95;;;10.40;99.90;;;;;;4973854;28;20449;-67
2022/05/22 01:09:00;;;;;;;18.30;6.93;;;10.30;99.90;;;;;;4972890;28;20451;-68
2022/05/22 01:11:28;;;;;;;17.25;6.78;;;10.30;99.90;;;;;;4973702;28;20051;-68
2022/05/22 01:14:03;;;;;;;17.38;6.65;;;10.30;99.90;;;;;;4974304;28;20039;-67
2022/05/22 01:16:29;;;;;;;21.38;7.05;;;10.30;99.90;;;;;;4973836;28;20046;-68
2022/05/22 01:18:56;;;;;;;22.45;7.47;;;10.30;99.90;;;;;;4973556;28;20065;-68
2022/05/22 01:21:28;;;;;;;20.48;7.15;;;10.30;99.90;;;;;;4973978;28;20069;-67
2022/05/22 01:23:54;;;;;;;20.85;7.68;;;10.30;99.90;;;;;;4970162;28;20509;-67
2022/05/22 01:26:21;;;;;;;16.48;6.63;;;10.20;99.90;;;;;;4962989;28;20057;-68
2022/05/22 01:28:47;;;;;;;14.30;6.75;;;10.20;99.90;;;;;;4973395;28;20097;-68
2022/05/22 01:31:13;;;;;;;19.83;6.70;;;10.20;99.90;;;;;;4955797;28;20047;-68
2022/05/22 01:33:40;;;;;;;17.48;6.68;;;10.20;99.90;;;;;;4972358;28;20506;-68
2022/05/22 01:36:07;;;;;;;14.27;6.85;;;10.20;99.90;;;;;;4972708;28;20047;-68
2022/05/22 01:38:34;;;;;;;18.05;7.15;;;10.20;99.90;;;;;;4973178;28;20109;-68
2022/05/22 01:41:01;;;;;;;14.50;6.68;;;10.30;99.90;;;;;;4971266;28;20074;-67
2022/05/22 01:43:27;;;;;;;19.42;6.82;;;10.20;99.90;;;;;;4973860;28;20421;-70
2022/05/22 01:45:55;;;;;;;16.65;6.97;;;10.20;99.90;;;;;;4955111;28;20051;-67
2022/05/22 01:48:22;;;;;;;18.65;6.50;;;10.20;99.90;;;;;;4969838;28;20039;-68
2022/05/22 01:50:48;;;;;;;15.90;7.03;;;10.10;99.90;;;;;;4972761;28;20113;-68
2022/05/22 01:53:15;;;;;;;17.38;7.40;;;10.10;99.90;;;;;;4973716;28;20038;-68
2022/05/22 01:55:41;;;;;;;24.00;7.43;;;10.10;99.90;;;;;;4972835;28;20051;-68
2022/05/22 01:58:07;;;;;;;19.02;6.32;;;10.10;99.90;;;;;;4973767;28;20054;-68
2022/05/22 02:00:34;;;;;;;16.52;7.80;;;10.10;99.90;;;;;;4971701;28;20514;-68
2022/05/22 02:03:00;;;;;;;24.13;7.63;;;10.00;99.90;;;;;;4973568;28;20050;-68
2022/05/22 02:05:26;;;;;;;11.38;6.03;;;10.00;99.90;;;;;;4973021;28;20043;-68
2022/05/22 02:10:37;;;;;;;15.60;7.97;;;10.00;99.90;;;;;;4972375;28;20051;-68
2022/05/22 02:13:04;;;;;;;16.42;7.53;;;10.00;99.90;;;;;;4972307;28;20054;-68
2022/05/22 02:15:29;;;;;;;19.38;7.82;;;10.00;99.90;;;;;;4969917;28;20078;-68
2022/05/22 02:17:55;;;;;;;18.23;6.47;;;9.90;99.90;;;;;;4972139;28;20081;-68
2022/05/22 02:20:21;;;;;;;21.15;7.50;;;9.90;99.90;;;;;;4971918;28;20046;-68
2022/05/22 02:22:49;;;;;;;18.90;7.65;;;9.90;99.90;;;;;;4966663;28;20058;-68
2022/05/22 02:25:25;;;;;;;;;;;9.90;99.90;;;;;;4970888;28;20042;-67
2022/05/22 02:27:52;;;;;;;17.40;7.32;;;9.80;99.90;;;;;;4969125;28;19922;-68
2022/05/22 02:30:20;;;;;;;21.63;7.20;;;9.80;99.90;;;;;;4971424;28;20417;-68
2022/05/22 02:32:46;;;;;;;18.77;7.32;;;9.80;99.90;;;;;;4975105;28;20405;-68
2022/05/22 02:35:13;;;;;;;15.70;6.82;;;9.80;99.90;;;;;;4975345;28;20046;-68
2022/05/22 02:37:50;;;;;;;28.10;8.25;;;9.80;99.90;;;;;;4975606;28;20058;-68
2022/05/22 02:40:18;;;;;;;13.90;7.43;;;9.80;99.90;;;;;;4970590;28;20054;-68
2022/05/22 02:42:49;;;;;;;14.07;6.82;;;9.80;99.90;;;;;;4976824;28;20382;-68
2022/05/22 02:45:20;;;;;;;20.00;7.00;;;9.80;99.90;;;;;;4975811;28;20042;-68
2022/05/22 02:47:46;;;;;;;17.27;7.63;;;9.70;99.90;;;;;;4943274;28;20104;-68
2022/05/22 02:50:17;;;;;;;20.10;7.72;;;9.70;99.90;;;;;;4976341;28;20397;-68
2022/05/22 02:52:42;;;;;;;24.95;8.25;;;9.70;99.90;;;;;;4976804;28;20065;-69
2022/05/22 02:55:09;;;;;;;21.83;9.20;;;9.70;99.90;;;;;;4963155;28;20424;-68
2022/05/22 02:57:36;;;;;;;16.75;9.95;;;9.70;99.90;;;;;;4975367;28;20369;-67
2022/05/22 03:00:04;;;;;;;22.73;10.10;;;9.70;99.90;;;;;;4975347;28;20047;-67
2022/05/22 03:02:30;;;;;;;22.00;8.60;;;9.70;99.90;;;;;;4975770;28;20452;-68
2022/05/22 03:04:56;;;;;;;30.67;10.43;;;9.70;99.90;;;;;;4975065;28;20035;-68
2022/05/22 03:07:21;;;;;;;26.80;9.73;;;9.60;99.90;;;;;;4975275;28;20474;-68
2022/05/22 03:09:47;;;;;;;19.27;8.00;;;9.60;99.90;;;;;;4975916;28;20058;-68
2022/05/22 03:12:17;;;;;;;17.75;7.72;;;9.70;99.90;;;;;;4961806;28;20369;-68
2022/05/22 03:15:05;;;;;;;19.45;7.70;;;9.60;99.90;;;;;;4969837;28;20509;-67
2022/05/22 03:17:30;;;;;;;16.15;8.07;;;9.60;99.90;;;;;;4970769;28;20053;-67
2022/05/22 03:19:56;;;;;;;21.15;7.95;;;9.60;99.90;;;;;;4975155;28;20043;-68
2022/05/22 03:22:22;;;;;;;18.35;7.70;;;9.60;99.90;;;;;;4975457;28;20050;-68
2022/05/22 03:24:48;;;;;;;18.17;8.82;;;9.60;99.90;;;;;;4976111;28;20047;-68
2022/05/22 03:27:16;;;;;;;19.45;7.32;;;9.60;99.90;;;;;;4969423;28;20129;-68
2022/05/22 03:29:44;;;;;;;19.08;8.32;;;9.60;99.90;;;;;;4973762;28;20074;-68
2022/05/22 03:32:11;;;;;;;17.05;6.93;;;9.60;99.90;;;;;;4974014;28;20038;-68
2022/05/22 03:34:37;;;;;;;19.10;8.07;;;9.60;99.90;;;;;;4959881;28;20065;-68
2022/05/22 03:37:04;;;;;;;18.98;8.50;;;9.60;99.90;;;;;;4973923;28;20481;-68
2022/05/22 03:39:30;;;;;;;18.33;7.93;;;9.60;99.90;;;;;;4975404;28;20054;-68
2022/05/22 03:41:58;;;;;;;20.58;7.93;;;9.60;99.90;;;;;;4967648;28;20510;-67
2022/05/22 03:44:23;;;;;;;18.85;8.35;;;9.60;99.90;;;;;;4973124;28;20043;-67
2022/05/22 03:46:49;;;;;;;19.67;7.47;;;9.60;99.90;;;;;;4977386;28;20082;-68
2022/05/22 03:49:15;;;;;;;16.67;7.07;;;9.60;99.90;;;;;;4973722;28;20045;-68
2022/05/22 03:51:42;;;;;;;18.30;7.50;;;9.60;99.90;;;;;;4975576;28;20130;-68
2022/05/22 03:54:08;;;;;;;17.52;7.47;;;9.60;99.90;;;;;;4975460;28;20078;-67
2022/05/22 03:56:35;;;;;;;17.77;7.50;;;9.60;99.90;;;;;;4974129;28;20077;-67
2022/05/22 03:59:02;;;;;;;19.38;8.07;;;9.60;99.90;;;;;;4973881;28;20054;-67
2022/05/22 04:01:29;;;;;;;20.40;7.93;;;9.60;99.90;;;;;;4974266;28;20046;-67
2022/05/22 04:03:56;;;;;;;18.55;7.75;;;9.60;99.90;;;;;;4974648;28;20043;-67
2022/05/22 04:06:22;;;;;;;20.27;7.60;;;9.60;99.90;;;;;;4972583;28;20405;-68
2022/05/22 04:08:48;;;;;;;15.60;7.43;;;9.70;99.90;;;;;;4974343;28;20035;-67
2022/05/22 04:11:17;;;;;;;20.67;8.13;;;9.70;99.90;;;;;;4972484;28;20043;-67
2022/05/22 04:13:43;;;;;;;15.38;7.38;;;9.70;99.90;;;;;;4970008;28;20047;-68
2022/05/22 04:16:09;;;;;;;18.50;7.60;;;9.90;99.90;;;;;;4974613;28;20082;-69
2022/05/22 04:18:35;;;;;;;16.00;7.55;;;9.80;99.90;;;;;;4974965;28;20456;-67
2022/05/22 04:21:01;;;;;;;20.08;7.13;;;9.80;99.90;;;;;;4972857;28;20082;-68
2022/05/22 04:26:12;;;;;;;16.90;7.13;;;9.90;99.90;;;;;;4986440;28;20047;-68
2022/05/22 04:28:38;;;;;;;20.67;7.10;;;10.00;99.90;;;;;;4970983;28;20038;-69
2022/05/22 04:31:04;;;;;;;17.60;6.63;;;10.00;99.90;;;;;;4973649;28;20065;-67
2022/05/22 04:33:31;;;;;;;22.63;8.15;;;10.10;99.90;;;;;;4976794;28;20082;-68
2022/05/22 04:35:57;;;;;;;18.67;6.75;;;10.20;99.90;;;;;;4974569;28;20051;-67
2022/05/22 04:38:23;;;;;;;20.63;6.80;;;10.30;99.90;;;;;;4972785;28;20081;-68
2022/05/22 04:41:00;;;;;;;18.02;7.05;;;10.30;99.90;;;;;;4974417;28;20082;-68
2022/05/22 04:43:27;;;;;;;23.77;7.05;;;10.40;99.90;;;;;;4973425;28;20086;-68
2022/05/22 04:45:54;;;;;;;22.52;7.65;;;10.40;99.90;;;;;;4972417;28;20074;-68
2022/05/22 04:48:21;;;;;;;19.60;7.00;;;10.40;99.90;;;;;;4974587;28;20166;-67
2022/05/22 04:50:48;;;;;;;19.08;6.93;;;10.40;99.90;;;;;;4972636;28;20452;-68
2022/05/22 04:53:15;;;;;;;20.65;7.20;;;10.50;99.90;;;;;;4974082;28;20405;-68
2022/05/22 04:55:40;;;;;;;20.33;6.03;;;10.50;99.90;;;;;;4973474;28;20039;-68
2022/05/22 04:58:06;;;;;;;17.20;6.45;;;10.60;99.90;;;;;;4969778;28;20031;-68
2022/05/22 05:00:32;;;;;;;15.70;6.90;;;10.70;99.90;;;;;;4972483;28;20055;-68
2022/05/22 05:02:58;;;;;;;17.23;6.28;;;10.70;99.90;;;;;;4973730;28;20489;-68
2022/05/22 05:05:24;;;;;;;18.80;6.13;;;10.80;99.90;;;;;;4973965;28;20445;-68
2022/05/22 05:07:49;;;;;;;17.13;7.10;;;10.90;99.90;;;;;;4973743;28;20055;-68
2022/05/22 05:10:15;;;;;;;19.70;7.47;;;10.90;99.90;;;;;;4972933;28;20130;-68
2022/05/22 05:12:43;;;;;;;12.38;6.47;;;11.00;99.90;;;;;;4973134;28;20157;-68
2022/05/22 05:15:11;;;;;;;15.80;6.38;;;11.10;99.90;;;;;;4973750;28;20563;-68
2022/05/22 05:17:38;;;;;;;20.00;6.90;;;11.20;99.90;;;;;;4973533;28;20156;-68
2022/05/22 05:20:05;;;;;;;23.00;7.60;;;11.30;99.90;;;;;;4971018;28;20046;-68
2022/05/22 05:22:32;;;;;;;17.00;5.97;;;11.40;99.90;;;;;;4968838;28;20090;-68
2022/05/22 05:24:58;;;;;;;19.63;6.85;;;11.40;99.90;;;;;;4972023;28;20513;-67
2022/05/22 05:27:23;;;;;;;23.38;7.43;;;11.50;99.90;;;;;;4972303;28;20093;-68
2022/05/22 05:29:49;;;;;;;21.98;7.00;;;11.60;99.90;;;;;;4973224;28;20085;-68
2022/05/22 05:32:19;;;;;;;20.45;7.05;;;11.70;99.90;;;;;;4972699;28;20039;-69
2022/05/22 05:34:44;;;;;;;16.77;6.57;;;11.70;99.90;;;;;;4973581;28;20117;-68
2022/05/22 05:37:10;;;;;;;15.52;6.32;;;11.80;99.90;;;;;;4973520;28;20553;-68
2022/05/22 05:39:36;;;;;;;19.67;6.70;;;11.90;99.90;;;;;;4971559;28;20042;-68
2022/05/22 05:42:01;;;;;;;22.70;6.38;;;12.00;99.90;;;;;;4972909;28;20452;-68
2022/05/22 05:44:27;;;;;;;26.50;6.75;;;12.10;99.90;;;;;;4972455;28;20049;-68
2022/05/22 05:46:53;;;;;;;18.67;6.85;;;12.20;99.90;;;;;;4973272;28;20438;-68
2022/05/22 05:49:18;;;;;;;19.48;5.82;;;12.20;99.90;;;;;;4972794;28;20035;-67
2022/05/22 05:51:44;;;;;;;15.55;6.05;;;12.30;99.90;;;;;;4972389;28;20138;-68
2022/05/22 05:54:10;;;;;;;17.73;6.97;;;12.40;99.90;;;;;;4972778;28;20082;-68
2022/05/22 05:56:40;;;;;;;23.27;6.60;;;12.50;99.90;;;;;;4953080;28;20053;-68
2022/05/22 05:59:06;;;;;;;22.27;7.45;;;12.60;99.90;;;;;;4969913;28;20039;-68
2022/05/22 06:01:33;;;;;;;26.70;6.82;;;12.60;99.90;;;;;;4972441;28;20054;-68
2022/05/22 06:03:59;;;;;;;18.73;7.43;;;12.70;99.90;;;;;;4971906;28;20452;-68
2022/05/22 06:06:25;;;;;;;21.15;7.80;;;12.80;99.90;;;;;;4972477;28;20042;-69
2022/05/22 06:08:52;;;;;;;17.38;6.70;;;12.90;99.90;;;;;;4954914;28;20074;-68
2022/05/22 06:11:18;;;;;;;20.20;7.80;;;13.00;99.90;;;;;;4972743;28;20117;-68
2022/05/22 06:13:44;;;;;;;29.35;8.35;;;13.20;99.90;;;;;;4972166;28;20726;-69
2022/05/22 06:16:10;;;;;;;19.25;7.22;;;13.20;99.90;;;;;;4970780;28;20509;-68
2022/05/22 06:18:36;;;;;;;21.55;8.32;;;13.30;99.90;;;;;;4962477;28;20075;-69
2022/05/22 06:21:14;;;;;;;23.40;8.25;;;13.50;99.90;;;;;;4987184;28;20050;-68
2022/05/22 06:23:40;;;;;;;24.60;8.88;;;13.50;99.90;;;;;;4967632;28;20047;-68
2022/05/22 06:26:07;;;;;;;21.90;7.72;;;13.60;99.90;;;;;;4972963;28;20121;-69
2022/05/22 06:28:32;;;;;;;20.88;7.05;;;13.80;99.90;;;;;;4973357;28;20092;-68
2022/05/22 06:30:58;;;;;;;22.05;8.15;;;13.90;99.90;;;;;;4970997;28;20044;-68
2022/05/22 06:33:23;;;;;;;21.27;7.40;;;14.00;99.90;;;;;;4971469;28;20133;-69
2022/05/22 06:35:49;;;;;;;16.08;6.60;;;14.20;99.90;;;;;;4973084;28;20155;-68
2022/05/22 06:41:08;;;;;;;16.98;7.05;;;14.50;99.90;;;;;;4973137;28;20501;-70
2022/05/22 06:43:34;;;;;;;16.55;6.32;;;14.70;99.90;;;;;;4954755;28;20118;-69
2022/05/22 06:45:59;;;;;;;20.27;6.65;;;14.80;99.90;;;;;;4969297;28;20181;-69
2022/05/22 06:48:25;;;;;;;23.23;6.72;;;14.90;99.90;;;;;;4971137;28;20047;-69
2022/05/22 06:50:51;;;;;;;19.50;5.70;;;15.10;99.90;;;;;;4972629;28;20042;-69
2022/05/22 06:53:17;;;;;;;16.48;5.15;;;15.20;99.90;;;;;;4973332;28;20046;-68
2022/05/22 06:55:42;;;;;;;15.98;4.68;;;15.40;99.90;;;;;;4968577;28;20415;-69
2022/05/22 06:58:09;;;;;;;14.10;5.03;;;15.40;99.90;;;;;;4956392;28;20051;-68
2022/05/22 07:00:35;;;;;;;11.73;3.97;;;15.50;99.90;;;;;;4971299;28;20371;-69
2022/05/22 07:03:01;;;;;;;13.85;4.43;;;15.60;99.90;;;;;;4972212;28;20302;-68
2022/05/22 07:05:27;;;;;;;17.30;4.50;;;15.70;99.90;;;;;;4987934;28;20757;-68
2022/05/22 07:07:53;;;;;;;14.35;4.47;;;15.80;99.90;;;;;;4972264;28;20055;-69
2022/05/22 07:11:38;;;;;;;10.15;3.50;;;15.90;99.90;;;;;;4972890;28;20049;-68
2022/05/22 07:13:05;;;;;;;13.60;3.97;;;16.00;99.90;;;;;;4972358;28;20134;-69
2022/05/22 07:15:30;;;;;;;11.75;3.75;;;16.00;99.90;;;;;;4970183;28;20130;-68
2022/05/22 07:17:56;;;;;;;14.52;3.50;;;16.10;99.90;;;;;;4975845;28;20050;-69
2022/05/22 07:20:21;;;;;;;17.10;3.75;;;16.20;99.90;;;;;;4976908;28;20090;-68
2022/05/22 07:22:47;;;;;;;14.65;3.60;;;16.30;99.90;;;;;;4976548;28;20128;-68
2022/05/22 07:25:13;;;;;;;14.15;4.90;;;16.40;99.90;;;;;;4975600;28;20094;-67
2022/05/22 07:27:38;;;;;;;12.70;3.92;;;16.50;99.90;;;;;;4974054;28;20550;-69
2022/05/22 07:30:04;;;;;;;7.93;2.85;;;16.60;99.90;;;;;;4974210;28;20122;-68
2022/05/22 07:32:30;;;;;;;16.17;3.78;;;16.70;99.90;;;;;;4972900;28;20053;-68
2022/05/22 07:34:55;;;;;;;13.77;3.55;;;16.80;99.90;;;;;;4960176;28;20486;-67
2022/05/22 07:37:21;;;;;;;14.38;3.22;;;16.90;99.90;;;;;;4957278;28;20175;-68
2022/05/22 07:39:47;;;;;;;13.70;3.40;;;16.90;99.90;;;;;;4972501;28;20039;-68
2022/05/22 07:42:12;;;;;;;10.27;2.70;;;17.10;99.90;;;;;;4955666;28;20126;-68
2022/05/22 07:44:40;;;;;;;11.73;3.22;;;17.10;99.90;;;;;;4957360;28;20118;-68
2022/05/22 07:47:06;;;;;;;9.63;3.40;;;17.20;99.90;;;;;;4965542;28;20046;-68
2022/05/22 07:52:16;;;;;;;11.27;3.40;;;17.40;99.90;;;;;;4976458;28;20058;-68
2022/05/22 07:54:41;;;;;;;12.75;3.53;;;17.50;99.90;;;;;;4976419;28;20074;-67
2022/05/22 07:57:07;;;;;;;19.40;3.50;;;17.50;99.90;;;;;;4976046;28;20077;-68
2022/05/22 07:59:34;;;;;;;15.07;3.35;;;17.70;99.90;;;;;;4976167;28;20039;-68
2022/05/22 08:02:02;;;;;;;8.23;3.00;;;17.70;99.90;;;;;;4961909;28;20090;-68
2022/05/22 08:04:28;;;;;;;14.18;3.83;;;17.70;99.90;;;;;;4956594;28;20085;-68
2022/05/22 08:06:54;;;;;;;9.60;3.72;;;17.60;99.90;;;;;;4965294;28;20057;-68
2022/05/22 08:09:20;;;;;;;14.93;3.50;;;17.40;99.90;;;;;;4975539;28;20047;-68
2022/05/22 08:11:45;;;;;;;12.10;3.25;;;17.60;99.90;;;;;;4975775;28;20493;-68
2022/05/22 08:14:11;;;;;;;11.02;3.15;;;17.60;99.90;;;;;;4974999;28;20082;-68
2022/05/22 08:16:37;;;;;;;16.17;3.28;;;18.00;99.90;;;;;;4969368;28;20047;-67
2022/05/22 08:19:03;;;;;;;11.68;2.75;;;18.10;99.90;;;;;;4974292;28;20030;-68
2022/05/22 08:21:29;;;;;;;11.07;2.95;;;18.20;99.90;;;;;;4965483;28;20494;-68
2022/05/22 08:23:54;;;;;;;13.88;3.10;;;18.30;99.90;;;;;;4971324;28;20404;-69
2022/05/22 08:26:20;;;;;;;10.52;3.03;;;18.30;99.90;;;;;;4973753;28;20039;-68
2022/05/22 08:28:46;;;;;;;11.50;2.80;;;18.20;99.90;;;;;;4974851;28;20035;-69
2022/05/22 08:31:12;;;;;;;11.02;2.72;;;18.40;99.90;;;;;;4974437;28;20051;-68
2022/05/22 08:33:37;;;;;;;9.95;2.88;;;18.60;99.90;;;;;;4973894;28;20049;-68
2022/05/22 08:36:04;;;;;;;14.90;2.42;;;18.90;99.90;;;;;;4975325;28;20039;-68
2022/05/22 08:38:29;;;;;;;7.85;2.42;;;19.00;99.90;;;;;;4974847;28;20456;-68
2022/05/22 08:41:19;;;;;;;9.60;2.25;;;19.20;99.90;;;;;;4975167;28;20131;-68
2022/05/22 08:44:22;;;;;;;13.00;2.75;;;19.30;99.90;;;;;;4955444;28;20126;-68
2022/05/22 08:47:12;;;;;;;11.05;2.90;;;19.40;99.70;;;;;;4961652;28;20439;-67
2022/05/22 08:49:47;;;;;;;11.07;2.85;;;19.20;99.90;;;;;;4974369;28;20047;-68
2022/05/22 08:52:34;;;;;;;11.93;2.97;;;19.20;99.90;;;;;;4974742;28;20051;-68
2022/05/22 08:55:05;;;;;;;9.38;2.72;;;19.30;99.90;;;;;;4974899;28;20065;-68
2022/05/22 08:58:59;;;;;;;13.73;3.08;;;19.50;99.90;;;;;;4974131;28;20082;-68
2022/05/22 09:01:07;;;;;;;10.77;3.15;;;19.70;99.40;;;;;;4971676;28;20145;-68
2022/05/22 09:03:44;;;;;;;11.73;3.15;;;19.80;97.70;;;;;;4967098;28;20077;-68
2022/05/22 09:06:11;;;;;;;9.10;2.60;;;19.80;98.00;;;;;;4970209;28;20414;-68
2022/05/22 09:08:50;;;;;;;10.05;2.70;;;19.80;96.30;;;;;;4972566;28;20121;-67
2022/05/22 09:11:19;;;;;;;7.47;2.13;;;19.50;97.50;;;;;;4953986;28;20082;-68
2022/05/22 09:14:19;;;;;;;8.63;2.40;;;19.20;99.00;;;;;;4954651;28;20402;-67
2022/05/22 09:16:55;;;;;;;13.32;2.65;;;19.00;99.50;;;;;;4966030;28;20047;-67
2022/05/22 09:19:38;;;;;;;10.55;2.78;;;18.70;99.90;;;;;;4972130;28;20558;-68
2022/05/22 09:22:18;;;;;;;10.75;2.40;;;18.70;99.90;;;;;;4964970;28;20548;-67
2022/05/22 09:24:57;;;;;;;10.00;2.90;;;18.80;99.90;;;;;;4973465;28;20113;-68
2022/05/22 09:27:25;;;;;;;9.43;2.70;;;18.90;98.60;;;;;;4963344;28;20059;-68
2022/05/22 09:30:28;;;;;;;11.10;2.70;;;19.00;99.80;;;;;;4969998;28;20156;-69
2022/05/22 09:33:10;;;;;;;9.00;2.25;;;19.20;98.50;;;;;;4952593;29;20387;-68
2022/05/22 09:36:01;;;;;;;9.63;2.47;;;19.20;97.60;;;;;;4965794;28;20043;-67
2022/05/22 09:38:39;;;;;;;9.10;2.17;;;19.00;98.50;;;;;;4972702;28;20049;-69
2022/05/22 09:41:25;;;;;;;10.53;2.53;;;18.90;98.40;;;;;;4971938;28;20042;-67
2022/05/22 09:44:12;;;;;;;10.13;2.50;;;18.80;97.10;;;;;;4969219;28;20134;-69
2022/05/22 09:46:51;;;;;;;13.48;2.22;;;18.70;96.30;;;;;;4973354;28;20047;-69
2022/05/22 09:49:25;;;;;;;7.47;2.53;;;18.50;97.00;;;;;;4954425;28;20047;-67
2022/05/22 09:52:20;;;;;;;8.77;2.20;;;18.30;97.80;;;;;;4954335;28;20533;-68
2022/05/22 09:55:23;;;;;;;9.85;2.20;;;18.30;99.90;;;;;;4956445;28;20038;-68
2022/05/22 09:58:13;;;;;;;9.32;2.10;;;18.40;99.90;;;;;;4971768;28;20093;-66
2022/05/22 10:00:41;;;;;;;;;;;18.80;98.00;;;;;;4968102;28;20516;-68
2022/05/22 10:03:26;;;;;;;9.05;2.00;;;18.90;96.70;;;;;;4971037;28;19929;-68
2022/05/22 10:05:52;;;;;;;6.68;2.05;;;18.90;95.80;;;;;;4973866;28;20073;-68
2022/05/22 10:08:21;;;;;;;6.32;1.70;;;19.10;97.50;;;;;;4963583;28;20055;-67
2022/05/22 10:10:49;;;;;;;12.90;2.10;;;19.30;93.20;;;;;;4971735;28;20050;-68
2022/05/22 10:13:33;;;;;;;7.57;1.92;;;19.40;92.20;;;;;;4973560;28;20043;-66
2022/05/22 10:16:17;;;;;;;7.00;1.67;;;19.50;93.10;;;;;;4972800;28;20531;-67
2022/05/22 10:18:58;;;;;;;5.43;1.55;;;19.60;92.10;;;;;;4971878;28;20129;-67
2022/05/22 10:21:36;;;;;;;7.20;2.20;;;19.80;91.30;;;;;;4978460;28;20046;-69
2022/05/22 10:24:10;;;;;;;6.47;1.92;;;19.80;92.90;;;;;;4967672;28;20445;-68
2022/05/22 10:26:57;;;;;;;8.98;2.08;;;20.00;92.50;;;;;;4972155;28;20039;-69
2022/05/22 10:29:29;;;;;;;7.18;1.83;;;20.20;94.80;;;;;;4976877;28;20050;-68
2022/05/22 10:32:07;;;;;;;8.18;1.90;;;20.30;94.30;;;;;;4987262;28;20052;-68
2022/05/22 10:35:01;;;;;;;7.80;2.20;;;20.30;93.40;;;;;;4965420;28;20050;-68
2022/05/22 10:37:45;;;;;;;8.15;2.15;;;20.30;93.50;;;;;;4986887;28;20097;-68
2022/05/22 10:40:18;;;;;;;9.13;2.05;;;20.40;94.00;;;;;;4989721;28;20049;-66
2022/05/22 10:42:50;;;;;;;8.30;2.10;;;20.40;90.30;;;;;;4979029;28;20105;-69
2022/05/22 10:45:33;;;;;;;7.50;1.90;;;20.20;91.20;;;;;;4988291;28;20050;-67
2022/05/22 10:48:24;;;;;;;13.27;2.47;;;19.80;91.80;;;;;;4966367;28;20051;-67
2022/05/22 10:51:02;;;;;;;8.98;2.03;;;19.90;90.80;;;;;;4970109;28;20449;-67
2022/05/22 10:53:41;;;;;;;11.50;2.40;;;19.40;92.40;;;;;;4966062;28;20050;-68
2022/05/22 10:56:19;;;;;;;7.63;2.38;;;19.30;93.30;;;;;;4986559;28;20459;-68
2022/05/22 10:59:05;;;;;;;6.97;2.05;;;19.40;91.40;;;;;;4976446;28;20152;-68
2022/05/22 11:01:37;;;;;;;6.72;1.70;;;19.20;91.60;;;;;;4972506;28;20392;-68
2022/05/22 11:04:11;;;;;;;6.50;2.08;;;19.10;91.40;;;;;;4975698;28;20389;-69
2022/05/22 11:06:50;;;;;;;7.63;2.05;;;18.90;93.00;;;;;;4976894;28;20053;-67
2022/05/22 11:09:24;;;;;;;5.43;1.70;;;18.90;92.30;;;;;;4975503;28;20138;-67
2022/05/22 11:11:49;;;;;;;9.93;2.00;;;18.80;92.60;;;;;;4980271;28;20050;-67
2022/05/22 11:14:20;;;;;;;11.70;3.10;;;18.80;93.10;;;;;;4977471;28;20038;-68
2022/05/22 11:16:47;;;;;;;10.93;2.38;;;18.80;94.40;;;;;;4973889;28;20061;-68
2022/05/22 11:19:26;;;;;;;5.17;1.80;;;19.10;95.10;;;;;;4978449;28;20448;-68
2022/05/22 11:21:57;;;;;;;6.25;2.17;;;19.80;95.30;;;;;;4976195;28;20436;-68
2022/05/22 11:24:37;;;;;;;8.27;2.42;;;20.40;94.80;;;;;;4972936;28;20162;-68
2022/05/22 11:27:21;;;;;;;8.27;1.85;;;20.60;92.70;;;;;;4982166;28;20526;-69
2022/05/22 11:29:55;;;;;;;8.57;1.92;;;20.60;92.10;;;;;;4983454;28;20050;-68
2022/05/22 11:32:51;;;;;;;7.75;1.92;;;20.90;93.40;;;;;;4978490;28;20145;-69
2022/05/22 11:35:45;;;;;;;6.18;1.90;;;21.40;91.50;;;;;;4989302;28;20096;-68
2022/05/22 11:38:26;;;;;;;8.82;2.30;;;21.70;87.10;;;;;;4960118;28;20082;-68
2022/05/22 11:40:58;;;;;;;6.40;2.05;;;21.90;88.40;;;;;;4984490;28;20548;-68
2022/05/22 11:43:31;;;;;;;9.20;2.17;;;22.30;85.90;;;;;;4989075;28;20050;-69
2022/05/22 11:46:28;;;;;;;8.05;1.70;;;22.60;87.00;;;;;;4981573;28;20062;-68
2022/05/22 11:49:02;;;;;;;6.53;1.73;;;23.10;84.40;;;;;;4981888;28;20046;-68
2022/05/22 11:51:50;;;;;;;7.13;2.38;;;23.40;83.30;;;;;;4970290;28;20047;-68
2022/05/22 11:54:30;;;;;;;4.80;1.88;;;23.50;76.60;;;;;;4976694;28;20053;-69
2022/05/22 11:57:24;;;;;;;7.13;2.17;;;23.50;76.30;;;;;;4978022;28;20054;-68
2022/05/22 12:00:14;;;;;;;6.45;2.30;;;23.30;75.40;;;;;;4987142;28;20094;-69
2022/05/22 12:03:11;;;;;;;5.55;1.90;;;23.40;77.10;;;;;;4975126;28;20043;-68
2022/05/22 12:05:47;;;;;;;8.50;1.90;;;23.40;69.90;;;;;;4970794;28;20493;-69
2022/05/22 12:08:28;;;;;;;6.05;2.20;;;23.60;73.30;;;;;;4973298;28;20142;-68
2022/05/22 12:11:12;;;;;;;7.78;2.28;;;23.50;71.70;;;;;;4971064;28;20058;-68
2022/05/22 12:14:03;;;;;;;6.53;2.03;;;23.70;78.30;;;;;;4975472;28;20046;-69
2022/05/22 12:16:36;;;;;;;8.10;2.03;;;23.70;72.40;;;;;;4974788;28;20059;-69
2022/05/22 12:19:07;;;;;;;7.50;2.22;;;23.60;75.20;;;;;;4972877;28;20054;-68
2022/05/22 12:22:03;;;;;;;6.45;2.03;;;23.80;72.50;;;;;;4961530;28;20069;-68
2022/05/22 12:24:48;;;;;;;12.65;2.05;;;23.80;69.30;;;;;;4990244;28;20942;-68
2022/05/22 12:27:40;;;;;;;7.75;1.90;;;23.70;72.30;;;;;;4976648;28;20141;-67
2022/05/22 12:30:11;;;;;;;4.95;1.67;;;23.40;67.50;;;;;;4975090;28;20062;-68
2022/05/22 12:32:44;;;;;;;5.18;2.30;;;23.00;71.00;;;;;;4952010;28;20050;-68
2022/05/22 12:35:11;;;;;;;6.95;1.98;;;22.70;72.70;;;;;;4969101;28;20154;-67
2022/05/22 12:37:43;;;;;;;5.57;1.80;;;22.50;69.50;;;;;;4972453;28;20055;-68
2022/05/22 12:40:39;;;;;;;7.93;1.85;;;22.00;73.60;;;;;;4978577;28;20439;-68
2022/05/22 12:43:07;;;;;;;7.05;2.20;;;21.70;75.20;;;;;;4977648;28;20148;-68
2022/05/22 12:45:33;;;;;;;;;;;21.40;78.60;;;;;;4940701;28;20082;-68
2022/05/22 12:48:24;;;;;;;7.72;2.10;;;21.30;77.20;;;;;;4970076;28;19921;-68
2022/05/22 12:50:54;;;;;;;6.13;1.83;;;21.20;80.10;;;;;;4973639;28;20055;-69
2022/05/22 12:53:31;;;;;;;6.28;1.65;;;21.10;81.70;;;;;;4993738;28;20066;-67
2022/05/22 12:56:16;;;;;;;8.07;2.10;;;20.90;80.50;;;;;;4968074;28;20046;-68
2022/05/22 12:58:50;;;;;;;8.07;1.95;;;20.60;80.80;;;;;;4967610;28;20472;-68
2022/05/22 13:01:23;;;;;;;5.32;1.52;;;20.60;83.40;;;;;;4972021;28;20047;-68
2022/05/22 13:03:52;;;;;;;10.32;1.90;;;20.50;82.40;;;;;;4977650;28;20054;-67
2022/05/22 13:06:22;;;;;;;8.85;2.17;;;20.30;83.70;;;;;;4983118;28;20370;-68
2022/05/22 13:09:01;;;;;;;5.15;2.38;;;20.30;84.90;;;;;;4971301;28;20038;-68
2022/05/22 13:11:42;;;;;;;7.40;2.28;;;20.20;84.90;;;;;;4971052;28;20058;-68
2022/05/22 13:14:25;;;;;;;6.10;1.77;;;20.20;84.20;;;;;;4980072;28;20078;-69
2022/05/22 13:16:52;;;;;;;8.80;2.30;;;20.20;85.60;;;;;;4976162;28;20485;-67